KBPI/BPI METAR and TAF weather

Enter ICAO airport designator
Station Type Date Time Source
KBPI METAR 2022/12/04 04:53 UTC NOAA

KBPI 040453Z AUTO 10005KT 10SM CLR M18/M21 A3031 RMK AO2 SLP369 T11781206


Station Type Date Time Source
KBPI Decoded METAR 2022/12/04 04:53 UTC NOAA

BIG PINEY-MARBLETON AIRPORT, WY, United States (KBPI) 42-35N 110-06W 2117M
Dec 03, 2022 - 11:53 PM EST / 2022.12.04 0453 UTC
Wind: from the E (100 degrees) at 6 MPH (5 KT):0
Visibility: 10 mile(s):0
Sky conditions: clear
Temperature: -0.0 F (-17.8 C)
Windchill: -11 F (-24 C):2
Dew Point: -5.1 F (-20.6 C)
Relative Humidity: 78%
Pressure (altimeter): 30.31 in. Hg (1026 hPa)
ob: KBPI 040453Z AUTO 10005KT 10SM CLR M18/M21 A3031 RMK AO2 SLP369 T11781206
cycle: 5

Station Type Date Time Source
KBPI TAF 2022/12/04 06:36 UTC NOAA

TAF KBPI 040532Z 0406/0506 VRB05KT P6SM SCT200
FM041200 VRB05KT P6SM FEW030 BKN050
FM041800 VRB06KT P6SM VCSH SCT020 OVC040
FM042200 VRB05KT P6SM VCSH BKN020 OVC035
FM050500 34005KT P6SM VCSH SCT020 BKN040

Example: see airport list